createdAt,value
2022-10-03T00:00:14.159Z,73.09
2022-10-03T00:03:21.664Z,73.63
2022-10-03T00:05:58.552Z,73.45
2022-10-03T00:08:43.374Z,72.79
2022-10-03T00:11:21.939Z,72.14
2022-10-03T00:13:52.919Z,72.33
2022-10-03T00:16:24.990Z,72.50
2022-10-03T00:18:58.439Z,72.05
2022-10-03T00:21:39.928Z,71.86
2022-10-03T00:24:17.931Z,72.49
2022-10-03T00:26:49.050Z,72.30
2022-10-03T00:29:26.270Z,72.35
2022-10-03T00:31:59.467Z,72.44
2022-10-03T00:34:36.130Z,72.10
2022-10-03T00:37:18.613Z,72.81
2022-10-03T00:39:59.922Z,72.38
2022-10-03T00:42:52.462Z,72.87
2022-10-03T00:45:55.468Z,72.86
2022-10-03T00:49:02.458Z,73.27
2022-10-03T00:51:40.678Z,72.98
2022-10-03T00:54:26.426Z,72.86
2022-10-03T00:57:23.944Z,72.51
2022-10-03T01:00:13.716Z,73.26
2022-10-03T01:02:48.747Z,73.62
2022-10-03T01:05:25.340Z,73.86
2022-10-03T01:08:07.925Z,73.63
2022-10-03T01:10:40.991Z,73.46
2022-10-03T01:13:22.227Z,73.63
2022-10-03T01:15:54.456Z,73.83
2022-10-03T01:18:33.186Z,73.78
2022-10-03T01:21:08.945Z,74.01
2022-10-03T01:23:49.995Z,74.72
2022-10-03T01:26:28.505Z,75.67
2022-10-03T01:29:17.645Z,76.34
2022-10-03T01:31:50.261Z,79.03
2022-10-03T01:34:24.378Z,79.97
2022-10-03T01:37:02.378Z,80.54
2022-10-03T01:39:35.768Z,79.42
2022-10-03T01:42:08.368Z,78.75
2022-10-03T01:44:46.428Z,77.28
2022-10-03T01:47:21.490Z,76.30
2022-10-03T01:49:55.036Z,75.85
2022-10-03T01:52:28.960Z,77.20
2022-10-03T01:55:01.762Z,78.15
2022-10-03T01:57:35.182Z,77.59
2022-10-03T02:00:07.537Z,76.17
2022-10-03T02:02:44.321Z,76.20
2022-10-03T02:05:19.299Z,76.17
2022-10-03T02:07:51.890Z,76.60
2022-10-03T02:10:26.401Z,76.13
2022-10-03T02:13:01.962Z,77.28
2022-10-03T02:15:36.158Z,76.90
2022-10-03T02:18:13.382Z,76.51
2022-10-03T02:20:47.034Z,76.55
2022-10-03T02:23:26.625Z,76.44
2022-10-03T02:26:01.639Z,75.17
2022-10-03T02:28:45.131Z,74.62
2022-10-03T02:31:45.711Z,74.13
2022-10-03T02:34:57.606Z,74.37
2022-10-03T02:38:05.488Z,74.86
2022-10-03T02:41:10.302Z,74.49
2022-10-03T02:43:57.570Z,74.65
2022-10-03T02:47:03.964Z,74.26
2022-10-03T02:49:52.600Z,74.08
2022-10-03T02:53:00.422Z,74.77
2022-10-03T02:55:43.271Z,75.03
2022-10-03T02:58:48.073Z,74.36
2022-10-03T03:01:48.688Z,74.28
2022-10-03T03:05:07.674Z,75.82
2022-10-03T03:07:44.752Z,78.18
2022-10-03T03:10:33.620Z,78.69
2022-10-03T03:13:37.074Z,77.44
2022-10-03T03:16:48.637Z,77.33
2022-10-03T03:19:29.935Z,76.53
2022-10-03T03:22:05.753Z,76.77
2022-10-03T03:24:49.745Z,77.54
2022-10-03T03:27:47.770Z,76.94
2022-10-03T03:30:17.971Z,77.70
2022-10-03T03:33:05.088Z,78.09
2022-10-03T03:35:43.508Z,76.89
2022-10-03T03:38:21.788Z,76.95
2022-10-03T03:41:00.331Z,77.79
2022-10-03T03:43:45.377Z,77.15
2022-10-03T03:46:24.160Z,76.51
2022-10-03T03:49:02.110Z,77.36
2022-10-03T03:51:35.053Z,77.92
2022-10-03T03:54:31.054Z,77.88
2022-10-03T03:57:26.683Z,77.13
2022-10-03T04:00:07.757Z,77.99
2022-10-03T04:02:48.318Z,76.64
2022-10-03T04:05:26.116Z,76.15
2022-10-03T04:08:12.217Z,76.11
2022-10-03T04:10:53.332Z,75.86
2022-10-03T04:13:38.017Z,75.83
2022-10-03T04:16:50.698Z,75.39
2022-10-03T04:19:26.277Z,75.17
2022-10-03T04:22:12.709Z,75.47
2022-10-03T04:25:15.855Z,75.56
2022-10-03T04:28:05.730Z,75.18
2022-10-03T04:30:37.418Z,74.70
2022-10-03T04:33:13.691Z,74.16
2022-10-03T04:36:08.075Z,74.23
2022-10-03T04:38:44.361Z,74.00
2022-10-03T04:41:23.503Z,74.10
2022-10-03T04:44:00.245Z,74.51
2022-10-03T04:46:32.399Z,74.22
2022-10-03T04:49:06.350Z,73.82
2022-10-03T04:51:43.827Z,73.28
2022-10-03T04:54:17.597Z,73.03
2022-10-03T04:56:52.325Z,72.99
2022-10-03T04:59:41.363Z,72.95
2022-10-03T05:02:18.004Z,73.09
2022-10-03T05:05:02.435Z,73.22
2022-10-03T05:07:34.219Z,73.57
2022-10-03T05:10:11.428Z,73.43
2022-10-03T05:12:44.958Z,73.28
2022-10-03T05:15:20.945Z,73.56
2022-10-03T05:17:54.256Z,74.11
2022-10-03T05:20:31.006Z,74.93
2022-10-03T05:23:03.909Z,74.28
2022-10-03T05:25:42.015Z,74.52
2022-10-03T05:28:18.848Z,75.35
2022-10-03T05:30:53.384Z,74.73
2022-10-03T05:33:28.438Z,74.86
2022-10-03T05:36:07.754Z,74.51
2022-10-03T05:39:01.298Z,74.15
2022-10-03T05:41:31.850Z,74.15
2022-10-03T05:44:05.339Z,74.32
2022-10-03T05:46:48.042Z,73.80
2022-10-03T05:49:34.797Z,73.57
2022-10-03T05:52:18.644Z,73.91
2022-10-03T05:55:05.438Z,73.88
2022-10-03T05:58:10.428Z,73.94
2022-10-03T06:00:52.066Z,73.90
2022-10-03T06:03:47.263Z,74.08
2022-10-03T06:06:20.968Z,74.39
2022-10-03T06:08:57.337Z,74.49
2022-10-03T06:11:40.364Z,74.73
2022-10-03T06:14:30.502Z,75.36
2022-10-03T06:17:10.210Z,75.32
2022-10-03T06:19:49.655Z,76.34
2022-10-03T06:22:40.526Z,76.12
2022-10-03T06:25:30.137Z,76.02
2022-10-03T06:28:30.133Z,75.94
2022-10-03T06:31:12.276Z,75.30
2022-10-03T06:34:33.782Z,74.11
2022-10-03T06:37:27.591Z,75.42
2022-10-03T06:40:32.801Z,76.32
2022-10-03T06:43:39.712Z,77.38
2022-10-03T06:46:51.792Z,78.17
2022-10-03T06:49:37.185Z,80.06
2022-10-03T06:52:28.501Z,80.45
2022-10-03T06:55:29.538Z,80.25
2022-10-03T06:58:48.793Z,79.78
2022-10-03T07:01:44.442Z,81.19
2022-10-03T07:04:34.862Z,81.11
2022-10-03T07:07:18.082Z,80.25
2022-10-03T07:10:12.613Z,80.36
2022-10-03T07:13:15.314Z,79.89
2022-10-03T07:16:14.309Z,80.40
2022-10-03T07:19:01.594Z,78.67
2022-10-03T07:22:08.186Z,78.01
2022-10-03T07:25:14.980Z,79.32
2022-10-03T07:27:55.297Z,78.92
2022-10-03T07:30:23.718Z,78.05
2022-10-03T07:33:38.040Z,78.08
2022-10-03T07:36:59.313Z,75.78
2022-10-03T07:39:43.365Z,74.11
2022-10-03T07:42:36.692Z,74.70
2022-10-03T07:45:22.952Z,73.56
2022-10-03T07:48:22.856Z,72.18
2022-10-03T07:51:12.065Z,70.35
2022-10-03T07:54:24.740Z,70.77
2022-10-03T07:57:14.692Z,73.53
2022-10-03T08:00:12.133Z,74.47
2022-10-03T08:03:09.843Z,72.99
2022-10-03T08:06:00.616Z,74.26
2022-10-03T08:08:50.587Z,75.58
2022-10-03T08:11:33.441Z,76.28
2022-10-03T08:14:16.870Z,74.62
2022-10-03T08:17:03.918Z,73.56
2022-10-03T08:19:52.554Z,71.66
2022-10-03T08:22:31.373Z,70.67
2022-10-03T08:25:17.009Z,71.15
2022-10-03T08:27:58.799Z,71.22
2022-10-03T08:30:28.877Z,70.72
2022-10-03T08:33:17.011Z,70.67
2022-10-03T08:36:33.601Z,69.65
2022-10-03T08:39:16.431Z,69.63
2022-10-03T08:42:17.619Z,68.66
2022-10-03T08:45:24.930Z,66.63
2022-10-03T08:48:24.989Z,65.67
2022-10-03T08:51:12.226Z,68.05
2022-10-03T08:54:05.631Z,66.08
2022-10-03T08:56:52.680Z,65.27
2022-10-03T08:59:44.826Z,65.73
2022-10-03T09:02:43.875Z,65.96
2022-10-03T09:05:42.261Z,64.00
2022-10-03T09:08:48.074Z,64.21
2022-10-03T09:11:35.666Z,62.58
2022-10-03T09:14:31.347Z,61.61
2022-10-03T09:17:09.577Z,60.63
2022-10-03T09:19:54.826Z,59.23
2022-10-03T09:22:37.611Z,57.10
2022-10-03T09:25:23.594Z,56.93
2022-10-03T09:28:25.527Z,56.20
2022-10-03T09:31:03.824Z,58.08
2022-10-03T09:34:07.821Z,56.72
2022-10-03T09:37:11.470Z,56.66
2022-10-03T09:40:17.015Z,57.19
2022-10-03T09:43:08.739Z,56.81
2022-10-03T09:46:01.974Z,56.50
2022-10-03T09:49:02.088Z,56.76
2022-10-03T09:51:43.347Z,56.66
2022-10-03T09:54:24.758Z,55.84
2022-10-03T09:57:06.215Z,55.89
2022-10-03T09:59:53.561Z,56.03
2022-10-03T10:02:57.534Z,54.30
2022-10-03T10:05:41.086Z,54.29
2022-10-03T10:08:31.059Z,53.62
2022-10-03T10:11:12.939Z,54.73
2022-10-03T10:14:10.693Z,53.38
2022-10-03T10:17:10.589Z,54.27
2022-10-03T10:20:05.696Z,52.79
2022-10-03T10:23:02.913Z,52.15
2022-10-03T10:25:50.119Z,52.82
2022-10-03T10:28:45.494Z,52.41
2022-10-03T10:31:53.040Z,52.66
2022-10-03T10:34:53.124Z,50.18
2022-10-03T10:38:02.483Z,50.05
2022-10-03T10:41:23.913Z,52.32
2022-10-03T10:44:30.290Z,49.45
2022-10-03T10:47:39.651Z,50.64
2022-10-03T10:50:37.356Z,46.86
2022-10-03T10:53:42.735Z,48.09
2022-10-03T10:56:35.225Z,44.69
2022-10-03T10:59:54.990Z,45.65
2022-10-03T11:02:59.231Z,43.35
2022-10-03T11:05:52.783Z,42.51
2022-10-03T11:09:05.668Z,41.20
2022-10-03T11:11:53.519Z,42.00
2022-10-03T11:14:46.892Z,40.51
2022-10-03T11:17:39.109Z,43.89
2022-10-03T11:20:31.676Z,45.23
2022-10-03T11:23:29.795Z,44.18
2022-10-03T11:26:31.149Z,44.49
2022-10-03T11:29:40.942Z,43.27
2022-10-03T11:32:33.075Z,42.45
2022-10-03T11:35:34.277Z,40.79
2022-10-03T11:38:05.500Z,41.76
2022-10-03T11:40:45.269Z,40.88
2022-10-03T11:43:46.110Z,40.42
2022-10-03T11:46:31.052Z,40.12
2022-10-03T11:49:02.575Z,39.71
2022-10-03T11:51:43.169Z,39.87
2022-10-03T11:54:31.195Z,41.68
2022-10-03T11:57:09.076Z,41.56
2022-10-03T11:59:48.046Z,43.31
2022-10-03T12:02:21.327Z,45.81
2022-10-03T12:04:55.989Z,42.07
2022-10-03T12:07:58.378Z,40.77
2022-10-03T12:10:35.510Z,39.04
2022-10-03T12:13:08.771Z,39.19
2022-10-03T12:15:39.378Z,41.81
2022-10-03T12:18:11.075Z,43.06
2022-10-03T12:21:01.645Z,40.35
2022-10-03T12:23:45.399Z,40.39
2022-10-03T12:26:18.041Z,39.49
2022-10-03T12:28:52.071Z,39.13
2022-10-03T12:31:24.736Z,41.72
2022-10-03T12:33:55.669Z,42.57
2022-10-03T12:36:28.877Z,41.33
2022-10-03T12:39:03.650Z,39.86
2022-10-03T12:41:57.612Z,40.10
2022-10-03T12:44:37.283Z,40.60
2022-10-03T12:47:21.478Z,40.28
2022-10-03T12:49:59.382Z,38.85
2022-10-03T12:52:30.237Z,37.93
2022-10-03T12:55:10.029Z,38.39
2022-10-03T12:57:49.914Z,38.17
2022-10-03T13:00:22.254Z,38.49
2022-10-03T13:03:02.800Z,38.06
2022-10-03T13:05:38.246Z,38.13
2022-10-03T13:08:17.869Z,38.42
2022-10-03T13:10:49.369Z,39.01
2022-10-03T13:13:25.117Z,37.83
2022-10-03T13:16:19.697Z,37.95
2022-10-03T13:18:54.467Z,38.46
2022-10-03T13:21:45.013Z,39.96
2022-10-03T13:24:22.626Z,39.43
2022-10-03T13:26:55.838Z,39.41
2022-10-03T13:29:27.433Z,39.08
2022-10-03T13:32:12.052Z,37.57
2022-10-03T13:34:48.841Z,36.56
2022-10-03T13:37:22.386Z,36.55
2022-10-03T13:39:53.119Z,37.45
2022-10-03T13:42:23.507Z,38.16
2022-10-03T13:44:55.304Z,38.58
2022-10-03T13:47:46.937Z,37.55
2022-10-03T13:50:18.342Z,37.35
2022-10-03T13:52:49.933Z,36.86
2022-10-03T13:55:27.765Z,35.87
2022-10-03T13:58:20.357Z,35.92
2022-10-03T14:00:59.873Z,35.72
2022-10-03T14:03:34.583Z,35.83
2022-10-03T14:06:10.866Z,36.21
2022-10-03T14:09:01.303Z,33.90
2022-10-03T14:11:38.678Z,34.81
2022-10-03T14:14:25.013Z,36.04
2022-10-03T14:17:00.674Z,37.05
2022-10-03T14:19:35.205Z,38.01
2022-10-03T14:22:12.638Z,36.31
2022-10-03T14:24:48.674Z,35.54
2022-10-03T14:27:37.516Z,36.60
2022-10-03T14:30:09.887Z,36.50
2022-10-03T14:32:47.631Z,37.25
2022-10-03T14:35:37.890Z,37.84
2022-10-03T14:38:54.190Z,38.68
2022-10-03T14:41:25.934Z,39.02
2022-10-03T14:43:56.451Z,39.86
2022-10-03T14:46:26.999Z,39.78
2022-10-03T14:48:58.737Z,40.85
2022-10-03T14:51:31.765Z,40.30
2022-10-03T14:54:02.762Z,40.86
2022-10-03T14:56:34.134Z,41.14
2022-10-03T14:59:04.701Z,41.31
2022-10-03T15:01:32.708Z,42.17
2022-10-03T15:04:04.053Z,41.58
2022-10-03T15:06:36.263Z,40.53
2022-10-03T15:09:06.835Z,41.48
2022-10-03T15:11:37.160Z,40.39
2022-10-03T15:14:06.980Z,40.82
2022-10-03T15:16:37.259Z,41.02
2022-10-03T15:19:10.159Z,40.69
2022-10-03T15:21:43.786Z,40.21
2022-10-03T15:24:14.692Z,40.22
2022-10-03T15:26:42.788Z,40.18
2022-10-03T15:29:16.230Z,39.97
2022-10-03T15:31:46.553Z,39.59
2022-10-03T15:34:18.242Z,39.74
2022-10-03T15:36:50.637Z,41.38
2022-10-03T15:39:22.349Z,41.48
2022-10-03T15:41:54.256Z,41.73
2022-10-03T15:44:26.809Z,42.03
2022-10-03T15:46:56.813Z,42.06
2022-10-03T15:49:27.273Z,42.28
2022-10-03T15:51:57.316Z,43.37
2022-10-03T15:54:28.939Z,43.91
2022-10-03T15:56:58.324Z,44.55
2022-10-03T15:59:29.957Z,44.16
2022-10-03T16:01:58.954Z,43.99
2022-10-03T16:04:29.025Z,43.56
2022-10-03T16:07:03.941Z,43.53
2022-10-03T16:09:36.469Z,44.00
2022-10-03T16:12:23.276Z,44.46
2022-10-03T16:14:52.749Z,44.39
2022-10-03T16:17:22.674Z,44.53
2022-10-03T16:19:54.223Z,45.50
2022-10-03T16:22:25.934Z,45.66
2022-10-03T16:25:05.481Z,45.90
2022-10-03T16:27:35.840Z,47.44
2022-10-03T16:30:19.004Z,47.17
2022-10-03T16:32:51.303Z,48.58
2022-10-03T16:35:38.073Z,49.17
2022-10-03T16:38:10.249Z,49.58
2022-10-03T16:40:38.911Z,50.83
2022-10-03T16:43:09.732Z,51.63
2022-10-03T16:45:41.902Z,51.85
2022-10-03T16:48:35.716Z,51.91
2022-10-03T16:51:04.352Z,52.07
2022-10-03T16:53:33.875Z,52.65
2022-10-03T16:56:07.151Z,53.75
2022-10-03T16:58:39.302Z,54.03
2022-10-03T17:01:26.319Z,54.80
2022-10-03T17:03:59.719Z,55.70
2022-10-03T17:06:30.329Z,55.55
2022-10-03T17:09:04.550Z,56.91
2022-10-03T17:11:37.082Z,56.74
2022-10-03T17:14:07.836Z,58.19
2022-10-03T17:16:40.063Z,58.14
2022-10-03T17:19:16.809Z,58.63
2022-10-03T17:21:53.778Z,59.53
2022-10-03T17:24:40.482Z,59.32
2022-10-03T17:27:15.229Z,60.22
2022-10-03T17:29:46.631Z,60.24
2022-10-03T17:32:20.318Z,60.96
2022-10-03T17:34:53.148Z,61.55
2022-10-03T17:37:45.071Z,63.00
2022-10-03T17:40:20.157Z,62.78
2022-10-03T17:42:54.185Z,62.66
2022-10-03T17:45:40.228Z,64.28
2022-10-03T17:48:13.433Z,63.89
2022-10-03T17:50:53.478Z,64.03
2022-10-03T17:53:23.401Z,64.99
2022-10-03T17:55:58.277Z,65.19
2022-10-03T17:58:29.508Z,64.88
2022-10-03T18:01:04.034Z,64.60
2022-10-03T18:03:35.913Z,66.94
2022-10-03T18:06:35.829Z,67.78
2022-10-03T18:09:10.350Z,67.82
2022-10-03T18:11:41.982Z,67.97
2022-10-03T18:14:16.446Z,67.71
2022-10-03T18:16:47.687Z,68.50
2022-10-03T18:19:34.575Z,67.83
2022-10-03T18:22:09.986Z,68.28
2022-10-03T18:24:59.210Z,69.77
2022-10-03T18:28:05.749Z,69.63
2022-10-03T18:30:37.049Z,69.98
2022-10-03T18:33:06.626Z,69.88
2022-10-03T18:35:36.511Z,70.48
2022-10-03T18:38:13.259Z,71.73
2022-10-03T18:40:48.631Z,71.39
2022-10-03T18:43:36.898Z,70.33
2022-10-03T18:46:12.219Z,69.56
2022-10-03T18:48:57.824Z,70.00
2022-10-03T18:51:37.494Z,69.77
2022-10-03T18:54:10.750Z,69.57
2022-10-03T18:56:39.213Z,69.32
2022-10-03T18:59:16.667Z,71.26
2022-10-03T19:01:53.219Z,70.99
2022-10-03T19:04:32.567Z,71.30
2022-10-03T19:07:02.453Z,72.23
2022-10-03T19:09:34.865Z,73.67
2022-10-03T19:12:07.450Z,73.36
2022-10-03T19:14:41.477Z,73.03
2022-10-03T19:17:23.231Z,73.96
2022-10-03T19:19:58.587Z,73.53
2022-10-03T19:22:30.087Z,73.15
2022-10-03T19:25:00.588Z,73.97
2022-10-03T19:27:41.145Z,74.50
2022-10-03T19:30:12.570Z,73.44
2022-10-03T19:32:50.659Z,73.15
2022-10-03T19:35:21.222Z,74.21
2022-10-03T19:37:51.787Z,74.32
2022-10-03T19:40:50.207Z,75.05
2022-10-03T19:43:43.018Z,73.55
2022-10-03T19:46:22.405Z,72.92
2022-10-03T19:48:53.723Z,73.15
2022-10-03T19:51:25.734Z,73.10
2022-10-03T19:53:56.571Z,72.70
2022-10-03T19:56:26.446Z,72.71
2022-10-03T19:59:04.666Z,73.11
2022-10-03T20:01:44.013Z,73.80
2022-10-03T20:04:12.462Z,75.15
2022-10-03T20:06:43.218Z,75.83
2022-10-03T20:09:21.081Z,75.06
2022-10-03T20:11:50.103Z,74.92
2022-10-03T20:14:23.604Z,74.47
2022-10-03T20:16:53.593Z,73.32
2022-10-03T20:19:24.902Z,73.61
2022-10-03T20:21:54.366Z,74.38
2022-10-03T20:24:27.888Z,75.46
2022-10-03T20:27:06.295Z,74.87
2022-10-03T20:29:38.747Z,74.08
2022-10-03T20:32:13.337Z,75.57
2022-10-03T20:34:41.885Z,74.54
2022-10-03T20:37:23.845Z,74.11
2022-10-03T20:39:52.833Z,73.45
2022-10-03T20:42:26.022Z,73.28
2022-10-03T20:44:59.623Z,73.92
2022-10-03T20:47:48.218Z,74.06
2022-10-03T20:50:23.292Z,73.53
2022-10-03T20:52:54.137Z,73.12
2022-10-03T20:55:25.141Z,73.34
2022-10-03T20:58:00.523Z,73.42
2022-10-03T21:00:29.878Z,73.21
2022-10-03T21:03:02.671Z,72.63
2022-10-03T21:05:36.066Z,74.07
2022-10-03T21:08:05.840Z,74.08
2022-10-03T21:10:37.070Z,73.55
2022-10-03T21:13:08.226Z,73.36
2022-10-03T21:15:40.969Z,74.79
2022-10-03T21:18:21.921Z,75.74
2022-10-03T21:20:52.106Z,75.76
2022-10-03T21:23:23.701Z,75.32
2022-10-03T21:25:53.770Z,75.65
2022-10-03T21:28:26.966Z,74.77
2022-10-03T21:31:24.117Z,75.41
2022-10-03T21:33:58.361Z,74.89
2022-10-03T21:36:28.074Z,73.72
2022-10-03T21:39:02.271Z,73.99
2022-10-03T21:41:36.189Z,74.99
2022-10-03T21:44:06.365Z,76.23
2022-10-03T21:46:39.849Z,76.78
2022-10-03T21:49:27.709Z,75.94
2022-10-03T21:52:23.610Z,74.18
2022-10-03T21:54:59.650Z,74.52
2022-10-03T21:57:35.255Z,75.27
2022-10-03T22:00:12.015Z,75.00
2022-10-03T22:02:47.879Z,74.89
2022-10-03T22:05:25.298Z,74.69
2022-10-03T22:07:53.131Z,74.83
2022-10-03T22:10:22.576Z,74.96
2022-10-03T22:12:52.861Z,74.89
2022-10-03T22:15:26.035Z,74.13
2022-10-03T22:17:56.489Z,74.32
2022-10-03T22:20:27.174Z,75.82
2022-10-03T22:23:00.789Z,75.43
2022-10-03T22:25:40.796Z,74.83
2022-10-03T22:28:14.664Z,74.37
2022-10-03T22:30:47.392Z,73.66
2022-10-03T22:33:19.665Z,73.91
2022-10-03T22:35:53.859Z,74.28
2022-10-03T22:38:24.477Z,73.70
2022-10-03T22:40:52.436Z,73.89
2022-10-03T22:43:20.873Z,73.80
2022-10-03T22:45:51.720Z,73.48
2022-10-03T22:48:22.205Z,73.48
2022-10-03T22:50:52.265Z,73.82
2022-10-03T22:53:23.551Z,74.52
2022-10-03T22:55:53.620Z,74.66
2022-10-03T22:58:21.842Z,75.63
2022-10-03T23:00:52.316Z,76.41
2022-10-03T23:03:22.089Z,77.06
2022-10-03T23:06:17.577Z,75.54
2022-10-03T23:08:51.170Z,74.43
2022-10-03T23:11:23.251Z,74.33
2022-10-03T23:13:51.420Z,74.46
2022-10-03T23:16:31.837Z,74.95
2022-10-03T23:19:08.925Z,75.71
2022-10-03T23:21:45.605Z,75.67
2022-10-03T23:24:17.495Z,76.45
2022-10-03T23:27:01.631Z,76.90
2022-10-03T23:29:29.413Z,76.22
2022-10-03T23:32:02.110Z,75.13
2022-10-03T23:35:04.327Z,75.00
2022-10-03T23:37:43.993Z,75.43
2022-10-03T23:40:36.367Z,74.85
2022-10-03T23:43:24.108Z,75.18
2022-10-03T23:45:53.225Z,74.69
2022-10-03T23:48:23.354Z,73.69
2022-10-03T23:50:53.678Z,74.34
2022-10-03T23:53:27.536Z,74.71
2022-10-03T23:55:55.739Z,74.62
2022-10-03T23:58:27.326Z,75.59
